Sanborn, Wisconsin
Current Conditions -  °F | °C
As of 6:53 AM on Thursday 27 Nov 2014 (Local Time) from KASX Reporting Station
Clear Clear  
Wind Chill: -11°   Ceiling: Unl
Heat Index: -1°   Visibility: 10mi
Dew Point: -5°   Wind: 5mph
Humidity: 83%   Direction: 250°WSW
Pressure: 30.44"   Gusts: NA
Location:  46.543°N, 90.8706°W
Report Text: KASX 271253Z AUTO 25004KT 10SM CLR M18/M21 A3044 RMK AO2 SLP328 I1000 T11831206
Loading
Personal Weather Stations






























Interactive Weather Map New forecast layout! Learn more

10-Day Weather Forecast

Advertisements
Track Severe Weather on mobile